sensor_id;sensor_type;location;lat;lon;timestamp;temperature;humidity
43995;DHT22;51687;52.160;5.298;2023-02-22T00:00:59;12.90;61.20
43995;DHT22;51687;52.160;5.298;2023-02-22T00:03:33;12.90;61.10
43995;DHT22;51687;52.160;5.298;2023-02-22T00:06:02;12.90;61.10
43995;DHT22;51687;52.160;5.298;2023-02-22T00:08:35;12.90;61.30
43995;DHT22;51687;52.160;5.298;2023-02-22T00:11:05;12.90;61.30
43995;DHT22;51687;52.160;5.298;2023-02-22T00:13:35;12.90;61.30
43995;DHT22;51687;52.160;5.298;2023-02-22T00:16:03;12.90;61.30
43995;DHT22;51687;52.160;5.298;2023-02-22T00:18:30;12.90;61.30
43995;DHT22;51687;52.160;5.298;2023-02-22T00:20:58;12.80;61.20
43995;DHT22;51687;52.160;5.298;2023-02-22T00:23:27;12.80;61.20
43995;DHT22;51687;52.160;5.298;2023-02-22T00:25:56;12.80;61.20
43995;DHT22;51687;52.160;5.298;2023-02-22T00:28:24;12.80;61.30
43995;DHT22;51687;52.160;5.298;2023-02-22T00:30:51;12.80;61.20
43995;DHT22;51687;52.160;5.298;2023-02-22T00:33:18;12.80;61.30
43995;DHT22;51687;52.160;5.298;2023-02-22T00:35:46;12.80;61.40
43995;DHT22;51687;52.160;5.298;2023-02-22T00:38:15;12.80;61.60
43995;DHT22;51687;52.160;5.298;2023-02-22T00:40:42;12.80;62.10
43995;DHT22;51687;52.160;5.298;2023-02-22T00:43:11;12.80;61.50
43995;DHT22;51687;52.160;5.298;2023-02-22T00:45:38;12.70;61.50
43995;DHT22;51687;52.160;5.298;2023-02-22T00:48:06;12.80;61.50
43995;DHT22;51687;52.160;5.298;2023-02-22T00:50:34;12.80;61.50
43995;DHT22;51687;52.160;5.298;2023-02-22T00:53:02;12.80;61.60
43995;DHT22;51687;52.160;5.298;2023-02-22T00:55:31;12.80;61.40
43995;DHT22;51687;52.160;5.298;2023-02-22T00:57:58;12.80;61.60
43995;DHT22;51687;52.160;5.298;2023-02-22T01:00:34;12.80;61.70
43995;DHT22;51687;52.160;5.298;2023-02-22T01:03:08;12.80;61.40
43995;DHT22;51687;52.160;5.298;2023-02-22T01:05:37;12.70;61.30
43995;DHT22;51687;52.160;5.298;2023-02-22T01:08:05;12.70;61.30
43995;DHT22;51687;52.160;5.298;2023-02-22T01:17:57;12.70;61.30
43995;DHT22;51687;52.160;5.298;2023-02-22T01:22:55;12.70;61.30
43995;DHT22;51687;52.160;5.298;2023-02-22T01:25:24;12.70;61.40
43995;DHT22;51687;52.160;5.298;2023-02-22T01:27:52;12.70;61.40
43995;DHT22;51687;52.160;5.298;2023-02-22T01:30:24;12.60;61.40
43995;DHT22;51687;52.160;5.298;2023-02-22T01:32:52;12.60;61.30
43995;DHT22;51687;52.160;5.298;2023-02-22T01:35:22;12.60;61.30
43995;DHT22;51687;52.160;5.298;2023-02-22T01:37:49;12.60;61.30
43995;DHT22;51687;52.160;5.298;2023-02-22T01:40:26;12.70;61.10
43995;DHT22;51687;52.160;5.298;2023-02-22T01:42:57;12.60;60.90
43995;DHT22;51687;52.160;5.298;2023-02-22T01:45:44;12.60;61.10
43995;DHT22;51687;52.160;5.298;2023-02-22T01:48:37;12.60;61.30
43995;DHT22;51687;52.160;5.298;2023-02-22T01:51:14;12.60;61.30
43995;DHT22;51687;52.160;5.298;2023-02-22T01:54:04;12.60;61.20
43995;DHT22;51687;52.160;5.298;2023-02-22T02:04:20;12.50;60.80
43995;DHT22;51687;52.160;5.298;2023-02-22T02:06:53;12.50;60.70
43995;DHT22;51687;52.160;5.298;2023-02-22T02:09:49;12.50;60.90
43995;DHT22;51687;52.160;5.298;2023-02-22T02:12:19;12.50;61.10
43995;DHT22;51687;52.160;5.298;2023-02-22T02:14:48;12.50;60.80
43995;DHT22;51687;52.160;5.298;2023-02-22T02:17:18;12.50;60.70
43995;DHT22;51687;52.160;5.298;2023-02-22T02:29:33;12.40;60.00
43995;DHT22;51687;52.160;5.298;2023-02-22T02:42:32;12.40;60.00
43995;DHT22;51687;52.160;5.298;2023-02-22T02:45:07;12.40;59.70
43995;DHT22;51687;52.160;5.298;2023-02-22T02:47:44;12.40;59.60
43995;DHT22;51687;52.160;5.298;2023-02-22T02:50:18;12.40;59.50
43995;DHT22;51687;52.160;5.298;2023-02-22T02:52:47;12.40;59.50
43995;DHT22;51687;52.160;5.298;2023-02-22T02:55:15;12.30;59.40
43995;DHT22;51687;52.160;5.298;2023-02-22T02:57:43;12.40;59.00
43995;DHT22;51687;52.160;5.298;2023-02-22T03:00:14;12.30;59.20
43995;DHT22;51687;52.160;5.298;2023-02-22T03:08:31;12.20;58.80
43995;DHT22;51687;52.160;5.298;2023-02-22T03:11:11;12.20;59.00
43995;DHT22;51687;52.160;5.298;2023-02-22T03:13:53;12.10;59.10
43995;DHT22;51687;52.160;5.298;2023-02-22T03:25:00;12.10;59.10
43995;DHT22;51687;52.160;5.298;2023-02-22T03:27:50;12.10;59.00
43995;DHT22;51687;52.160;5.298;2023-02-22T03:30:26;12.10;59.10
43995;DHT22;51687;52.160;5.298;2023-02-22T03:33:01;12.00;59.20
43995;DHT22;51687;52.160;5.298;2023-02-22T03:35:38;12.00;59.20
43995;DHT22;51687;52.160;5.298;2023-02-22T03:38:10;12.00;59.30
43995;DHT22;51687;52.160;5.298;2023-02-22T03:40:40;12.00;59.40
43995;DHT22;51687;52.160;5.298;2023-02-22T03:43:35;12.00;59.60
43995;DHT22;51687;52.160;5.298;2023-02-22T03:46:02;12.00;59.40
43995;DHT22;51687;52.160;5.298;2023-02-22T03:48:40;12.00;59.40
43995;DHT22;51687;52.160;5.298;2023-02-22T03:51:11;12.00;59.40
43995;DHT22;51687;52.160;5.298;2023-02-22T03:53:43;12.00;59.50
43995;DHT22;51687;52.160;5.298;2023-02-22T03:56:21;12.00;59.40
43995;DHT22;51687;52.160;5.298;2023-02-22T03:58:49;12.00;59.60
43995;DHT22;51687;52.160;5.298;2023-02-22T04:01:17;12.00;59.40
43995;DHT22;51687;52.160;5.298;2023-02-22T04:03:45;12.00;59.40
43995;DHT22;51687;52.160;5.298;2023-02-22T04:06:12;12.00;59.50
43995;DHT22;51687;52.160;5.298;2023-02-22T04:08:38;11.90;59.50
43995;DHT22;51687;52.160;5.298;2023-02-22T04:11:05;11.90;59.70
43995;DHT22;51687;52.160;5.298;2023-02-22T04:13:32;11.90;59.80
43995;DHT22;51687;52.160;5.298;2023-02-22T04:15:58;11.90;59.70
43995;DHT22;51687;52.160;5.298;2023-02-22T04:18:25;11.90;59.60
43995;DHT22;51687;52.160;5.298;2023-02-22T04:20:52;11.90;59.60
43995;DHT22;51687;52.160;5.298;2023-02-22T04:23:19;11.90;59.70
43995;DHT22;51687;52.160;5.298;2023-02-22T04:25:46;11.90;59.90
43995;DHT22;51687;52.160;5.298;2023-02-22T04:28:13;11.90;59.90
43995;DHT22;51687;52.160;5.298;2023-02-22T04:30:39;11.90;60.00
43995;DHT22;51687;52.160;5.298;2023-02-22T04:33:06;11.80;60.00
43995;DHT22;51687;52.160;5.298;2023-02-22T04:35:33;11.90;60.10
43995;DHT22;51687;52.160;5.298;2023-02-22T04:38:01;11.80;60.10
43995;DHT22;51687;52.160;5.298;2023-02-22T04:40:30;11.80;60.20
43995;DHT22;51687;52.160;5.298;2023-02-22T04:42:56;11.80;60.90
43995;DHT22;51687;52.160;5.298;2023-02-22T04:45:23;11.80;60.40
43995;DHT22;51687;52.160;5.298;2023-02-22T04:47:50;11.80;60.60
43995;DHT22;51687;52.160;5.298;2023-02-22T04:50:17;11.80;60.70
43995;DHT22;51687;52.160;5.298;2023-02-22T04:52:44;11.80;60.80
43995;DHT22;51687;52.160;5.298;2023-02-22T04:55:11;11.90;60.70
43995;DHT22;51687;52.160;5.298;2023-02-22T04:57:38;11.80;60.50
43995;DHT22;51687;52.160;5.298;2023-02-22T05:00:05;11.80;61.10
43995;DHT22;51687;52.160;5.298;2023-02-22T05:02:32;11.80;60.50
43995;DHT22;51687;52.160;5.298;2023-02-22T05:04:58;11.80;60.60
43995;DHT22;51687;52.160;5.298;2023-02-22T05:07:25;11.80;60.60
43995;DHT22;51687;52.160;5.298;2023-02-22T05:09:52;11.80;60.70
43995;DHT22;51687;52.160;5.298;2023-02-22T05:12:19;11.80;60.90
43995;DHT22;51687;52.160;5.298;2023-02-22T05:14:46;11.80;61.00
43995;DHT22;51687;52.160;5.298;2023-02-22T05:17:13;11.80;61.00
43995;DHT22;51687;52.160;5.298;2023-02-22T05:19:40;11.80;61.20
43995;DHT22;51687;52.160;5.298;2023-02-22T05:22:07;11.80;61.20
43995;DHT22;51687;52.160;5.298;2023-02-22T05:24:34;11.80;61.20
43995;DHT22;51687;52.160;5.298;2023-02-22T05:27:01;11.80;61.10
43995;DHT22;51687;52.160;5.298;2023-02-22T05:29:27;11.80;61.10
43995;DHT22;51687;52.160;5.298;2023-02-22T05:31:54;11.80;61.30
43995;DHT22;51687;52.160;5.298;2023-02-22T05:34:21;11.70;61.20
43995;DHT22;51687;52.160;5.298;2023-02-22T05:36:48;11.70;61.30
43995;DHT22;51687;52.160;5.298;2023-02-22T05:39:15;11.80;61.40
43995;DHT22;51687;52.160;5.298;2023-02-22T05:41:41;11.70;61.40
43995;DHT22;51687;52.160;5.298;2023-02-22T05:44:08;11.70;61.40
43995;DHT22;51687;52.160;5.298;2023-02-22T05:46:35;11.70;61.40
43995;DHT22;51687;52.160;5.298;2023-02-22T05:49:02;11.70;61.50
43995;DHT22;51687;52.160;5.298;2023-02-22T05:51:28;11.70;61.70
43995;DHT22;51687;52.160;5.298;2023-02-22T05:53:55;11.70;61.80
43995;DHT22;51687;52.160;5.298;2023-02-22T05:56:24;11.70;61.80
43995;DHT22;51687;52.160;5.298;2023-02-22T05:58:51;11.70;61.90
43995;DHT22;51687;52.160;5.298;2023-02-22T06:01:18;11.60;61.90
43995;DHT22;51687;52.160;5.298;2023-02-22T06:03:46;11.60;62.00
43995;DHT22;51687;52.160;5.298;2023-02-22T06:06:15;11.60;62.10
43995;DHT22;51687;52.160;5.298;2023-02-22T06:08:43;11.60;62.10
43995;DHT22;51687;52.160;5.298;2023-02-22T06:11:10;11.60;62.40
43995;DHT22;51687;52.160;5.298;2023-02-22T06:13:37;11.60;62.30
43995;DHT22;51687;52.160;5.298;2023-02-22T06:16:04;11.60;62.30
43995;DHT22;51687;52.160;5.298;2023-02-22T06:18:31;11.60;62.30
43995;DHT22;51687;52.160;5.298;2023-02-22T06:20:58;11.60;62.40
43995;DHT22;51687;52.160;5.298;2023-02-22T06:23:26;11.60;62.40
43995;DHT22;51687;52.160;5.298;2023-02-22T06:25:53;11.60;62.50
43995;DHT22;51687;52.160;5.298;2023-02-22T06:28:19;11.60;62.60
43995;DHT22;51687;52.160;5.298;2023-02-22T06:30:46;11.60;62.60
43995;DHT22;51687;52.160;5.298;2023-02-22T06:33:13;11.60;62.70
43995;DHT22;51687;52.160;5.298;2023-02-22T06:35:39;11.70;62.90
43995;DHT22;51687;52.160;5.298;2023-02-22T06:38:07;11.80;62.60
43995;DHT22;51687;52.160;5.298;2023-02-22T06:40:34;11.80;62.70
43995;DHT22;51687;52.160;5.298;2023-02-22T06:43:02;11.90;62.50
43995;DHT22;51687;52.160;5.298;2023-02-22T06:45:29;12.00;62.50
43995;DHT22;51687;52.160;5.298;2023-02-22T06:47:56;12.10;62.50
43995;DHT22;51687;52.160;5.298;2023-02-22T06:50:25;12.10;62.30
43995;DHT22;51687;52.160;5.298;2023-02-22T06:52:54;12.20;62.20
43995;DHT22;51687;52.160;5.298;2023-02-22T06:55:24;12.30;61.80
43995;DHT22;51687;52.160;5.298;2023-02-22T06:57:52;12.40;61.70
43995;DHT22;51687;52.160;5.298;2023-02-22T07:00:21;12.40;61.20
43995;DHT22;51687;52.160;5.298;2023-02-22T07:02:48;12.50;61.30
43995;DHT22;51687;52.160;5.298;2023-02-22T07:05:17;12.50;61.40
43995;DHT22;51687;52.160;5.298;2023-02-22T07:07:45;12.60;60.80
43995;DHT22;51687;52.160;5.298;2023-02-22T07:10:26;12.70;60.70
43995;DHT22;51687;52.160;5.298;2023-02-22T07:12:53;12.70;60.30
43995;DHT22;51687;52.160;5.298;2023-02-22T07:15:22;12.70;60.40
43995;DHT22;51687;52.160;5.298;2023-02-22T07:17:50;12.70;60.20
43995;DHT22;51687;52.160;5.298;2023-02-22T07:20:18;12.60;60.20
43995;DHT22;51687;52.160;5.298;2023-02-22T07:22:47;12.60;60.40
43995;DHT22;51687;52.160;5.298;2023-02-22T07:25:14;12.60;60.50
43995;DHT22;51687;52.160;5.298;2023-02-22T07:27:41;12.60;60.60
43995;DHT22;51687;52.160;5.298;2023-02-22T07:30:23;12.70;60.50
43995;DHT22;51687;52.160;5.298;2023-02-22T07:32:53;12.60;60.40
43995;DHT22;51687;52.160;5.298;2023-02-22T07:35:23;12.60;60.60
43995;DHT22;51687;52.160;5.298;2023-02-22T07:37:50;12.60;60.80
43995;DHT22;51687;52.160;5.298;2023-02-22T07:40:22;12.70;61.40
43995;DHT22;51687;52.160;5.298;2023-02-22T07:45:17;12.80;62.30
43995;DHT22;51687;52.160;5.298;2023-02-22T07:47:45;12.80;60.80
43995;DHT22;51687;52.160;5.298;2023-02-22T07:50:16;12.90;60.70
43995;DHT22;51687;52.160;5.298;2023-02-22T07:52:47;13.00;61.30
43995;DHT22;51687;52.160;5.298;2023-02-22T07:55:15;13.00;60.00
43995;DHT22;51687;52.160;5.298;2023-02-22T07:57:44;13.00;59.90
43995;DHT22;51687;52.160;5.298;2023-02-22T08:00:13;13.00;59.70
43995;DHT22;51687;52.160;5.298;2023-02-22T08:02:43;13.00;59.20
43995;DHT22;51687;52.160;5.298;2023-02-22T08:05:10;13.00;59.30
43995;DHT22;51687;52.160;5.298;2023-02-22T08:07:38;12.90;59.40
43995;DHT22;51687;52.160;5.298;2023-02-22T08:10:06;13.00;59.50
43995;DHT22;51687;52.160;5.298;2023-02-22T08:12:34;13.00;59.50
43995;DHT22;51687;52.160;5.298;2023-02-22T08:15:06;12.90;59.50
43995;DHT22;51687;52.160;5.298;2023-02-22T08:17:33;13.00;59.40
43995;DHT22;51687;52.160;5.298;2023-02-22T08:20:00;12.90;59.60
43995;DHT22;51687;52.160;5.298;2023-02-22T08:22:27;12.90;59.70
43995;DHT22;51687;52.160;5.298;2023-02-22T08:24:54;13.00;59.50
43995;DHT22;51687;52.160;5.298;2023-02-22T08:27:28;13.00;59.80
43995;DHT22;51687;52.160;5.298;2023-02-22T08:29:56;13.00;59.50
43995;DHT22;51687;52.160;5.298;2023-02-22T08:32:23;13.00;59.50
43995;DHT22;51687;52.160;5.298;2023-02-22T08:34:50;13.00;59.20
43995;DHT22;51687;52.160;5.298;2023-02-22T08:37:18;13.10;59.10
43995;DHT22;51687;52.160;5.298;2023-02-22T08:39:45;13.00;59.20
43995;DHT22;51687;52.160;5.298;2023-02-22T08:42:11;13.00;59.50
43995;DHT22;51687;52.160;5.298;2023-02-22T08:44:38;13.00;59.40
43995;DHT22;51687;52.160;5.298;2023-02-22T08:47:06;13.10;61.10
43995;DHT22;51687;52.160;5.298;2023-02-22T08:49:33;13.20;59.90
43995;DHT22;51687;52.160;5.298;2023-02-22T08:52:00;13.20;59.20
43995;DHT22;51687;52.160;5.298;2023-02-22T08:54:26;13.10;58.90
43995;DHT22;51687;52.160;5.298;2023-02-22T08:56:53;13.10;59.80
43995;DHT22;51687;52.160;5.298;2023-02-22T08:59:20;13.20;59.70
43995;DHT22;51687;52.160;5.298;2023-02-22T09:01:47;13.20;59.50
43995;DHT22;51687;52.160;5.298;2023-02-22T09:04:13;13.30;59.40
43995;DHT22;51687;52.160;5.298;2023-02-22T09:06:41;13.40;59.60
43995;DHT22;51687;52.160;5.298;2023-02-22T09:09:09;13.50;59.30
43995;DHT22;51687;52.160;5.298;2023-02-22T09:11:36;13.60;59.20
43995;DHT22;51687;52.160;5.298;2023-02-22T09:14:03;13.60;59.00
43995;DHT22;51687;52.160;5.298;2023-02-22T09:18:57;13.70;58.90
43995;DHT22;51687;52.160;5.298;2023-02-22T09:21:24;13.80;58.40
43995;DHT22;51687;52.160;5.298;2023-02-22T09:23:51;13.80;58.30
43995;DHT22;51687;52.160;5.298;2023-02-22T09:26:20;13.90;58.60
43995;DHT22;51687;52.160;5.298;2023-02-22T09:28:49;13.90;58.10
43995;DHT22;51687;52.160;5.298;2023-02-22T09:31:16;13.90;58.20
43995;DHT22;51687;52.160;5.298;2023-02-22T09:33:43;13.90;58.10
43995;DHT22;51687;52.160;5.298;2023-02-22T09:46:36;14.10;58.80
43995;DHT22;51687;52.160;5.298;2023-02-22T09:49:23;14.30;58.30
43995;DHT22;51687;52.160;5.298;2023-02-22T09:52:07;14.30;57.80
43995;DHT22;51687;52.160;5.298;2023-02-22T09:54:47;14.30;57.90
43995;DHT22;51687;52.160;5.298;2023-02-22T09:57:31;14.40;57.80
43995;DHT22;51687;52.160;5.298;2023-02-22T10:00:16;14.40;58.10
43995;DHT22;51687;52.160;5.298;2023-02-22T10:02:55;14.40;57.60
43995;DHT22;51687;52.160;5.298;2023-02-22T10:05:31;14.40;57.90
43995;DHT22;51687;52.160;5.298;2023-02-22T10:08:02;14.40;57.90
43995;DHT22;51687;52.160;5.298;2023-02-22T10:19:14;14.60;57.20
43995;DHT22;51687;52.160;5.298;2023-02-22T10:24:49;14.60;57.60
43995;DHT22;51687;52.160;5.298;2023-02-22T10:27:21;14.70;57.90
43995;DHT22;51687;52.160;5.298;2023-02-22T10:29:52;14.70;57.90
43995;DHT22;51687;52.160;5.298;2023-02-22T10:32:40;14.70;57.30
43995;DHT22;51687;52.160;5.298;2023-02-22T10:35:23;14.70;56.80
43995;DHT22;51687;52.160;5.298;2023-02-22T10:37:53;14.70;56.70
43995;DHT22;51687;52.160;5.298;2023-02-22T10:40:23;14.70;56.30
43995;DHT22;51687;52.160;5.298;2023-02-22T10:43:08;14.70;56.30
43995;DHT22;51687;52.160;5.298;2023-02-22T10:45:35;14.70;56.20
43995;DHT22;51687;52.160;5.298;2023-02-22T10:48:06;14.70;56.80
43995;DHT22;51687;52.160;5.298;2023-02-22T10:50:39;14.70;56.70
43995;DHT22;51687;52.160;5.298;2023-02-22T10:53:08;14.70;56.30
43995;DHT22;51687;52.160;5.298;2023-02-22T10:55:35;14.70;56.00
43995;DHT22;51687;52.160;5.298;2023-02-22T10:58:05;14.70;56.30
43995;DHT22;51687;52.160;5.298;2023-02-22T11:00:35;14.60;56.20
43995;DHT22;51687;52.160;5.298;2023-02-22T11:03:19;14.60;56.20
43995;DHT22;51687;52.160;5.298;2023-02-22T11:05:48;14.50;56.60
43995;DHT22;51687;52.160;5.298;2023-02-22T11:08:28;14.50;56.60
43995;DHT22;51687;52.160;5.298;2023-02-22T11:11:00;14.50;57.10
43995;DHT22;51687;52.160;5.298;2023-02-22T11:13:29;14.50;57.10
43995;DHT22;51687;52.160;5.298;2023-02-22T11:16:15;14.50;56.90
43995;DHT22;51687;52.160;5.298;2023-02-22T11:18:43;14.50;57.50
43995;DHT22;51687;52.160;5.298;2023-02-22T11:21:11;14.50;57.40
43995;DHT22;51687;52.160;5.298;2023-02-22T11:23:41;14.50;57.20
43995;DHT22;51687;52.160;5.298;2023-02-22T11:26:13;14.50;57.00
43995;DHT22;51687;52.160;5.298;2023-02-22T11:28:46;14.50;57.00
43995;DHT22;51687;52.160;5.298;2023-02-22T11:31:21;14.50;56.70
43995;DHT22;51687;52.160;5.298;2023-02-22T11:33:54;14.40;55.90
43995;DHT22;51687;52.160;5.298;2023-02-22T11:39:05;14.30;55.90
43995;DHT22;51687;52.160;5.298;2023-02-22T11:41:36;14.30;55.90
43995;DHT22;51687;52.160;5.298;2023-02-22T11:44:27;14.30;55.70
43995;DHT22;51687;52.160;5.298;2023-02-22T11:46:57;14.20;55.90
43995;DHT22;51687;52.160;5.298;2023-02-22T11:49:38;14.10;56.00
43995;DHT22;51687;52.160;5.298;2023-02-22T11:52:31;14.00;56.20
43995;DHT22;51687;52.160;5.298;2023-02-22T11:55:04;13.90;56.70
43995;DHT22;51687;52.160;5.298;2023-02-22T12:01:00;13.90;57.10
43995;DHT22;51687;52.160;5.298;2023-02-22T12:06:27;13.70;57.90
43995;DHT22;51687;52.160;5.298;2023-02-22T12:14:55;13.70;58.40
43995;DHT22;51687;52.160;5.298;2023-02-22T12:17:49;13.70;58.40
43995;DHT22;51687;52.160;5.298;2023-02-22T12:20:50;13.70;58.30
43995;DHT22;51687;52.160;5.298;2023-02-22T12:26:08;13.80;58.30
43995;DHT22;51687;52.160;5.298;2023-02-22T12:28:40;13.80;58.40
43995;DHT22;51687;52.160;5.298;2023-02-22T12:37:21;14.00;58.70
43995;DHT22;51687;52.160;5.298;2023-02-22T12:40:15;14.00;58.50
43995;DHT22;51687;52.160;5.298;2023-02-22T12:45:34;14.10;58.60
43995;DHT22;51687;52.160;5.298;2023-02-22T12:48:24;14.20;58.70
43995;DHT22;51687;52.160;5.298;2023-02-22T12:50:57;14.20;58.10
43995;DHT22;51687;52.160;5.298;2023-02-22T12:53:29;14.20;58.20
43995;DHT22;51687;52.160;5.298;2023-02-22T12:56:30;14.20;57.90
43995;DHT22;51687;52.160;5.298;2023-02-22T12:59:21;14.20;58.20
43995;DHT22;51687;52.160;5.298;2023-02-22T13:01:57;14.30;58.00
43995;DHT22;51687;52.160;5.298;2023-02-22T13:04:25;14.30;57.90
43995;DHT22;51687;52.160;5.298;2023-02-22T13:09:47;14.30;57.80
43995;DHT22;51687;52.160;5.298;2023-02-22T13:16:11;14.30;57.80
43995;DHT22;51687;52.160;5.298;2023-02-22T13:18:17;14.30;57.90
43995;DHT22;51687;52.160;5.298;2023-02-22T13:21:02;14.40;57.70
43995;DHT22;51687;52.160;5.298;2023-02-22T13:23:57;14.40;57.60
43995;DHT22;51687;52.160;5.298;2023-02-22T13:29:08;14.40;58.10
43995;DHT22;51687;52.160;5.298;2023-02-22T13:31:41;14.40;57.90
43995;DHT22;51687;52.160;5.298;2023-02-22T14:16:27;14.40;58.30
43995;DHT22;51687;52.160;5.298;2023-02-22T14:19:14;14.60;59.00
43995;DHT22;51687;52.160;5.298;2023-02-22T14:22:13;14.60;58.70
43995;DHT22;51687;52.160;5.298;2023-02-22T14:24:50;14.60;58.40
43995;DHT22;51687;52.160;5.298;2023-02-22T14:27:17;14.50;58.20
43995;DHT22;51687;52.160;5.298;2023-02-22T14:29:56;14.50;58.50
43995;DHT22;51687;52.160;5.298;2023-02-22T14:32:31;14.40;58.70
43995;DHT22;51687;52.160;5.298;2023-02-22T14:35:04;14.40;58.80
43995;DHT22;51687;52.160;5.298;2023-02-22T14:37:41;14.40;59.10
43995;DHT22;51687;52.160;5.298;2023-02-22T14:40:23;14.30;59.10
43995;DHT22;51687;52.160;5.298;2023-02-22T14:43:30;14.30;59.10
43995;DHT22;51687;52.160;5.298;2023-02-22T14:46:01;14.30;59.30
43995;DHT22;51687;52.160;5.298;2023-02-22T14:48:38;14.30;59.30
43995;DHT22;51687;52.160;5.298;2023-02-22T14:51:24;14.20;59.50
43995;DHT22;51687;52.160;5.298;2023-02-22T14:57:20;14.20;59.60
43995;DHT22;51687;52.160;5.298;2023-02-22T15:00:28;14.10;59.80
43995;DHT22;51687;52.160;5.298;2023-02-22T15:02:50;14.10;59.80
43995;DHT22;51687;52.160;5.298;2023-02-22T15:05:19;14.10;60.00
43995;DHT22;51687;52.160;5.298;2023-02-22T15:07:54;14.00;60.10
43995;DHT22;51687;52.160;5.298;2023-02-22T15:10:40;14.10;60.30
43995;DHT22;51687;52.160;5.298;2023-02-22T15:13:16;14.00;60.40
43995;DHT22;51687;52.160;5.298;2023-02-22T15:15:46;14.00;60.60
43995;DHT22;51687;52.160;5.298;2023-02-22T15:18:28;14.00;60.60
43995;DHT22;51687;52.160;5.298;2023-02-22T15:21:12;14.00;60.90
43995;DHT22;51687;52.160;5.298;2023-02-22T15:24:03;13.90;61.00
43995;DHT22;51687;52.160;5.298;2023-02-22T15:26:33;13.90;61.10
43995;DHT22;51687;52.160;5.298;2023-02-22T15:29:19;13.90;61.10
43995;DHT22;51687;52.160;5.298;2023-02-22T15:31:46;13.90;61.10
43995;DHT22;51687;52.160;5.298;2023-02-22T15:36:42;13.90;61.20
43995;DHT22;51687;52.160;5.298;2023-02-22T15:39:29;13.90;61.30
43995;DHT22;51687;52.160;5.298;2023-02-22T15:42:05;13.90;61.10
43995;DHT22;51687;52.160;5.298;2023-02-22T15:44:39;13.90;61.20
43995;DHT22;51687;52.160;5.298;2023-02-22T15:47:19;13.80;61.30
43995;DHT22;51687;52.160;5.298;2023-02-22T15:55:35;14.00;61.40
43995;DHT22;51687;52.160;5.298;2023-02-22T15:58:11;14.00;61.20
43995;DHT22;51687;52.160;5.298;2023-02-22T16:00:49;14.10;61.20
43995;DHT22;51687;52.160;5.298;2023-02-22T16:03:19;14.20;61.20
43995;DHT22;51687;52.160;5.298;2023-02-22T16:05:55;14.20;61.20
43995;DHT22;51687;52.160;5.298;2023-02-22T16:08:44;14.20;60.90
43995;DHT22;51687;52.160;5.298;2023-02-22T16:13:59;14.10;61.10
43995;DHT22;51687;52.160;5.298;2023-02-22T16:30:30;14.10;61.30
43995;DHT22;51687;52.160;5.298;2023-02-22T16:33:04;14.10;60.90
43995;DHT22;51687;52.160;5.298;2023-02-22T16:35:31;14.10;60.80
43995;DHT22;51687;52.160;5.298;2023-02-22T16:38:05;14.10;60.80
43995;DHT22;51687;52.160;5.298;2023-02-22T16:40:38;14.10;60.90
43995;DHT22;51687;52.160;5.298;2023-02-22T16:43:10;14.20;60.80
43995;DHT22;51687;52.160;5.298;2023-02-22T16:45:37;14.20;60.60
43995;DHT22;51687;52.160;5.298;2023-02-22T16:48:29;14.20;60.60
43995;DHT22;51687;52.160;5.298;2023-02-22T16:50:58;14.20;60.40
43995;DHT22;51687;52.160;5.298;2023-02-22T16:53:26;14.30;60.50
43995;DHT22;51687;52.160;5.298;2023-02-22T16:56:01;14.30;60.30
43995;DHT22;51687;52.160;5.298;2023-02-22T16:58:32;14.30;60.40
43995;DHT22;51687;52.160;5.298;2023-02-22T17:00:59;14.30;60.50
43995;DHT22;51687;52.160;5.298;2023-02-22T17:03:25;14.30;60.40
43995;DHT22;51687;52.160;5.298;2023-02-22T17:05:52;14.30;60.30
43995;DHT22;51687;52.160;5.298;2023-02-22T17:08:19;14.30;60.40
43995;DHT22;51687;52.160;5.298;2023-02-22T17:10:47;14.20;60.50
43995;DHT22;51687;52.160;5.298;2023-02-22T17:13:23;14.20;60.70
43995;DHT22;51687;52.160;5.298;2023-02-22T17:15:52;14.20;60.70
43995;DHT22;51687;52.160;5.298;2023-02-22T17:18:24;14.10;60.80
43995;DHT22;51687;52.160;5.298;2023-02-22T17:20:55;14.10;61.00
43995;DHT22;51687;52.160;5.298;2023-02-22T17:23:22;14.10;61.00
43995;DHT22;51687;52.160;5.298;2023-02-22T17:25:58;14.00;61.10
43995;DHT22;51687;52.160;5.298;2023-02-22T17:28:25;14.00;61.30
43995;DHT22;51687;52.160;5.298;2023-02-22T17:30:55;14.10;61.30
43995;DHT22;51687;52.160;5.298;2023-02-22T17:33:29;14.10;61.20
43995;DHT22;51687;52.160;5.298;2023-02-22T17:35:57;14.10;61.30
43995;DHT22;51687;52.160;5.298;2023-02-22T17:38:25;14.10;61.30
43995;DHT22;51687;52.160;5.298;2023-02-22T17:40:55;14.10;61.60
43995;DHT22;51687;52.160;5.298;2023-02-22T17:43:23;14.00;61.60
43995;DHT22;51687;52.160;5.298;2023-02-22T17:45:50;14.00;61.60
43995;DHT22;51687;52.160;5.298;2023-02-22T17:48:19;14.10;61.60
43995;DHT22;51687;52.160;5.298;2023-02-22T17:50:49;14.10;61.50
43995;DHT22;51687;52.160;5.298;2023-02-22T17:53:17;14.10;61.40
43995;DHT22;51687;52.160;5.298;2023-02-22T17:55:48;14.10;61.50
43995;DHT22;51687;52.160;5.298;2023-02-22T17:58:15;14.20;61.50
43995;DHT22;51687;52.160;5.298;2023-02-22T18:00:45;14.10;61.50
43995;DHT22;51687;52.160;5.298;2023-02-22T18:03:15;14.10;61.60
43995;DHT22;51687;52.160;5.298;2023-02-22T18:05:46;14.10;61.60
43995;DHT22;51687;52.160;5.298;2023-02-22T18:08:14;14.10;61.80
43995;DHT22;51687;52.160;5.298;2023-02-22T18:10:41;14.10;61.90
43995;DHT22;51687;52.160;5.298;2023-02-22T18:13:09;14.00;62.10
43995;DHT22;51687;52.160;5.298;2023-02-22T18:15:38;14.00;62.40
43995;DHT22;51687;52.160;5.298;2023-02-22T18:18:05;14.00;62.70
43995;DHT22;51687;52.160;5.298;2023-02-22T18:20:32;13.90;62.70
43995;DHT22;51687;52.160;5.298;2023-02-22T18:23:06;13.90;62.90
43995;DHT22;51687;52.160;5.298;2023-02-22T18:25:34;13.90;63.30
43995;DHT22;51687;52.160;5.298;2023-02-22T18:28:02;13.90;63.50
43995;DHT22;51687;52.160;5.298;2023-02-22T18:30:30;13.90;63.60
43995;DHT22;51687;52.160;5.298;2023-02-22T18:32:56;13.80;63.80
43995;DHT22;51687;52.160;5.298;2023-02-22T18:35:23;13.80;64.00
43995;DHT22;51687;52.160;5.298;2023-02-22T18:37:50;13.90;64.10
43995;DHT22;51687;52.160;5.298;2023-02-22T18:40:18;13.90;64.00
43995;DHT22;51687;52.160;5.298;2023-02-22T18:42:44;13.90;64.20
43995;DHT22;51687;52.160;5.298;2023-02-22T18:45:12;13.90;64.10
43995;DHT22;51687;52.160;5.298;2023-02-22T18:47:41;13.90;64.10
43995;DHT22;51687;52.160;5.298;2023-02-22T18:50:09;13.90;64.10
43995;DHT22;51687;52.160;5.298;2023-02-22T18:52:37;13.90;64.10
43995;DHT22;51687;52.160;5.298;2023-02-22T18:55:20;14.00;64.00
43995;DHT22;51687;52.160;5.298;2023-02-22T18:57:48;14.00;64.00
43995;DHT22;51687;52.160;5.298;2023-02-22T19:00:18;14.00;63.90
43995;DHT22;51687;52.160;5.298;2023-02-22T19:02:49;13.90;64.00